Time;durP1;ratioP1;P1;durP2;ratioP2;P2;SDS_P1;SDS_P2;PMS_P1;PMS_P2;Temp;Humidity;BMP_temperature;BMP_pressure;BME280_temperature;BME280_humidity;BME280_pressure;Samples;Min_cycle;Max_cycle;Signal;HPM_P1;HPM_P2
2023/04/08 00:02:24;;;;;;;;;8.75;7.25;;;;;12.33;44.94;101749.56;5061464;28;45292;-69
2023/04/08 00:04:49;;;;;;;;;9.00;9.00;;;;;12.32;44.81;101750.44;5061621;28;45235;-69
2023/04/08 00:07:15;;;;;;;;;10.50;9.00;;;;;12.30;44.73;101753.97;5077141;28;45210;-69
2023/04/08 00:09:40;;;;;;;;;9.75;8.25;;;;;12.27;44.99;101757.50;5043368;28;45511;-70
2023/04/08 00:12:06;;;;;;;;;8.00;7.00;;;;;12.26;45.05;101752.22;5061317;28;45339;-69
2023/04/08 00:14:31;;;;;;;;;10.25;10.00;;;;;12.24;45.04;101757.53;5061331;28;45318;-69
2023/04/08 00:16:56;;;;;;;;;10.75;9.00;;;;;12.22;45.21;101754.00;5061277;28;45382;-70
2023/04/08 00:19:22;;;;;;;;;7.00;5.75;;;;;12.20;45.10;101758.44;5061124;28;46982;-70
2023/04/08 00:21:47;;;;;;;;;8.00;8.00;;;;;12.18;45.18;101754.91;5060910;28;50327;-69
2023/04/08 00:24:12;;;;;;;;;10.00;9.00;;;;;12.16;45.21;101762.84;5061142;28;45252;-70
2023/04/08 00:26:38;;;;;;;;;22.25;19.00;;;;;12.15;45.16;101754.91;5061236;28;45544;-69
2023/04/08 00:29:03;;;;;;;;;11.75;10.50;;;;;12.14;45.22;101755.81;5060694;28;45251;-70
2023/04/08 00:31:28;;;;;;;;;13.25;10.75;;;;;12.11;45.36;101755.81;5060829;28;47249;-70
2023/04/08 00:33:54;;;;;;;;;12.00;11.00;;;;;12.08;45.28;101759.34;5060799;28;45259;-69
2023/04/08 00:36:19;;;;;;;;;10.00;10.00;;;;;12.05;45.29;101759.38;5060969;28;45430;-70
2023/04/08 00:38:44;;;;;;;;;12.50;12.50;;;;;12.02;45.30;101760.25;5060939;28;45231;-70
2023/04/08 00:41:10;;;;;;;;;15.50;12.75;;;;;12.00;45.18;101754.09;5059302;28;47306;-70
2023/04/08 00:43:35;;;;;;;;;13.50;11.75;;;;;11.99;45.37;101759.38;5060958;28;45395;-69
2023/04/08 00:46:00;;;;;;;;;15.25;12.75;;;;;11.97;45.48;101762.00;5076551;28;45347;-70
2023/04/08 00:48:26;;;;;;;;;12.00;9.25;;;;;11.92;45.30;101749.72;5060750;28;45446;-69
2023/04/08 00:50:51;;;;;;;;;13.00;12.00;;;;;11.91;45.46;101758.50;5060484;28;46060;-70
2023/04/08 00:53:18;;;;;;;;;11.25;7.25;;;;;11.90;45.43;101762.91;5060790;28;45381;-69
2023/04/08 00:55:44;;;;;;;;;7.50;7.50;;;;;11.87;45.48;101766.41;5060710;28;45379;-70
2023/04/08 00:58:10;;;;;;;;;10.50;10.00;;;;;11.85;45.60;101762.03;5060577;28;45408;-69
2023/04/08 01:00:42;;;;;;;;;8.75;8.50;;;;;11.81;45.45;101757.66;5060539;28;45273;-69
2023/04/08 01:03:10;;;;;;;;;12.50;9.75;;;;;11.81;45.68;101755.91;5058897;28;45412;-70
2023/04/08 01:06:05;;;;;;;;;12.00;8.25;;;;;11.80;45.65;101758.56;5076368;28;45155;-70
2023/04/08 01:08:35;;;;;;;;;8.75;8.25;;;;;11.77;45.75;101758.53;5040802;28;45442;-69
2023/04/08 01:11:02;;;;;;;;;11.50;9.50;;;;;11.75;45.66;101762.94;5060100;28;46129;-70
2023/04/08 01:13:30;;;;;;;;;10.75;9.75;;;;;11.73;45.85;101764.72;5060269;28;45573;-70
2023/04/08 01:15:56;;;;;;;;;11.75;10.00;;;;;11.68;45.89;101762.97;5060543;28;45214;-70
2023/04/08 01:18:22;;;;;;;;;11.25;11.25;;;;;11.67;45.77;101766.47;5060043;28;45450;-70
2023/04/08 01:20:50;;;;;;;;;14.75;11.25;;;;;11.63;45.70;101754.19;5060074;28;45344;-70
2023/04/08 01:23:50;;;;;;;;;11.50;10.50;;;;;11.63;45.88;101767.34;5060253;28;45378;-70
2023/04/08 01:26:21;;;;;;;;;13.25;10.00;;;;;11.60;45.92;101758.59;5060211;28;45375;-69
2023/04/08 01:28:49;;;;;;;;;9.50;9.50;;;;;11.58;45.95;101760.34;5060115;28;45268;-70
2023/04/08 01:31:16;;;;;;;;;13.50;10.75;;;;;11.53;45.92;101757.72;5058665;28;46047;-70
2023/04/08 01:33:43;;;;;;;;;12.25;11.50;;;;;11.52;45.97;101759.47;5059655;28;45384;-70
2023/04/08 01:36:09;;;;;;;;;10.50;9.75;;;;;11.53;45.98;101760.34;5060227;28;45246;-70
2023/04/08 01:38:36;;;;;;;;;9.00;9.00;;;;;11.50;46.02;101760.38;5058789;28;45748;-70
2023/04/08 01:41:02;;;;;;;;;12.00;9.00;;;;;11.49;46.10;101758.59;5058916;28;46573;-69
2023/04/08 01:43:30;;;;;;;;;8.50;8.50;;;;;11.48;46.16;101764.75;5058683;28;45371;-69
2023/04/08 01:45:57;;;;;;;;;9.25;9.25;;;;;11.44;46.15;101755.97;5060125;28;45317;-70
2023/04/08 01:48:23;;;;;;;;;11.25;10.50;;;;;11.45;46.24;101759.50;5059667;28;45501;-69
2023/04/08 01:50:50;;;;;;;;;8.75;7.75;;;;;11.41;46.07;101747.19;5059738;28;45273;-70
2023/04/08 01:53:15;;;;;;;;;10.50;8.00;;;;;11.42;46.12;101756.84;5059701;28;45327;-69
2023/04/08 01:55:44;;;;;;;;;11.25;8.75;;;;;11.38;46.15;101756.88;5059739;28;45307;-69
2023/04/08 01:58:14;;;;;;;;;10.50;8.50;;;;;11.38;46.24;101759.50;5059897;28;45406;-69
2023/04/08 02:00:41;;;;;;;;;9.25;7.75;;;;;11.33;46.06;101756.00;5059700;28;46386;-69
2023/04/08 02:03:10;;;;;;;;;7.50;7.25;;;;;11.32;46.20;101751.63;5059530;28;45370;-69
2023/04/08 02:05:36;;;;;;;;;5.00;3.00;;;;;11.31;46.30;101757.75;5059739;28;45244;-69
2023/04/08 02:08:01;;;;;;;;;9.00;9.00;;;;;11.28;46.36;101755.16;5059729;28;45209;-69
2023/04/08 02:10:26;;;;;;;;;10.00;7.50;;;;;11.27;46.20;101758.66;5059362;28;49417;-70
2023/04/08 02:12:52;;;;;;;;;9.00;7.00;;;;;11.25;46.30;101757.75;5059561;28;45442;-70
2023/04/08 02:15:17;;;;;;;;;9.00;7.75;;;;;11.24;46.43;101749.88;5059758;28;45216;-70
2023/04/08 02:17:45;;;;;;;;;7.25;7.25;;;;;11.22;46.34;101757.78;5059489;28;45169;-69
2023/04/08 02:20:29;;;;;;;;;9.50;7.25;;;;;11.16;46.52;101756.00;5059491;28;46039;-70
2023/04/08 02:23:19;;;;;;;;;7.75;6.50;;;;;11.16;46.33;101763.03;5059418;28;45316;-69
2023/04/08 02:25:46;;;;;;;;;7.00;6.75;;;;;11.14;46.32;101760.38;5058230;28;45342;-69
2023/04/08 02:28:14;;;;;;;;;7.50;5.75;;;;;11.12;46.34;101748.09;5058129;28;45181;-70
2023/04/08 02:30:47;;;;;;;;;8.50;6.75;;;;;11.10;46.42;101761.28;5059148;28;47171;-69
2023/04/08 02:33:14;;;;;;;;;6.25;6.25;;;;;11.05;46.47;101748.09;5059093;28;45267;-69
2023/04/08 02:35:40;;;;;;;;;4.00;2.00;;;;;11.04;46.43;101751.63;5058242;28;45241;-69
2023/04/08 02:38:06;;;;;;;;;7.75;7.75;;;;;10.99;46.38;101755.13;5059499;28;45333;-70
2023/04/08 02:40:32;;;;;;;;;8.75;6.75;;;;;11.01;46.45;101756.88;5058895;28;46206;-69
2023/04/08 02:42:58;;;;;;;;;6.00;6.00;;;;;10.98;46.61;101756.00;5059404;28;45297;-70
2023/04/08 02:45:28;;;;;;;;;6.75;5.75;;;;;10.97;46.42;101763.03;5058215;28;45386;-69
2023/04/08 02:47:54;;;;;;;;;6.75;5.25;;;;;10.96;46.93;101763.03;5058965;28;45244;-70
2023/04/08 02:50:19;;;;;;;;;8.75;7.00;;;;;10.94;46.48;101751.63;5059185;28;45446;-70
2023/04/08 02:52:45;;;;;;;;;6.75;6.75;;;;;10.91;46.61;101762.16;5061545;28;45313;-70
2023/04/08 02:55:10;;;;;;;;;9.00;7.75;;;;;10.89;46.66;101760.41;5062827;28;45402;-69
2023/04/08 02:57:38;;;;;;;;;6.00;5.25;;;;;10.88;46.51;101765.66;5062820;28;45454;-70
2023/04/08 03:00:04;;;;;;;;;8.50;7.50;;;;;10.84;46.57;101761.25;5062483;28;46471;-69
2023/04/08 03:02:29;;;;;;;;;5.25;5.25;;;;;10.84;46.67;101763.88;5062464;28;45472;-69
2023/04/08 03:04:55;;;;;;;;;7.00;6.00;;;;;10.81;46.73;101762.13;5062661;28;45243;-69
2023/04/08 03:07:20;;;;;;;;;5.50;5.50;;;;;10.81;46.53;101764.75;5062301;28;50799;-70
2023/04/08 03:09:45;;;;;;;;;6.50;4.75;;;;;10.80;46.76;101770.03;5062147;28;46975;-69
2023/04/08 03:12:11;;;;;;;;;6.25;6.25;;;;;10.78;46.57;101763.88;5062710;28;46003;-69
2023/04/08 03:14:36;;;;;;;;;8.00;7.75;;;;;10.76;46.57;101757.75;5060663;28;54434;-69
2023/04/08 03:17:01;;;;;;;;;9.25;7.75;;;;;10.73;46.60;101770.00;5062210;28;45651;-70
2023/04/08 03:19:26;;;;;;;;;8.75;8.00;;;;;10.72;46.68;101759.50;5062130;28;45295;-69
2023/04/08 03:21:52;;;;;;;;;9.50;6.00;;;;;10.69;46.83;101764.75;5062326;28;45310;-69
2023/04/08 03:24:17;;;;;;;;;7.25;6.75;;;;;10.68;46.73;101769.13;5062223;28;45216;-69
2023/04/08 03:26:42;;;;;;;;;7.50;7.00;;;;;10.66;46.64;101776.13;5062179;28;45250;-69
2023/04/08 03:29:08;;;;;;;;;9.50;7.50;;;;;10.63;46.62;101768.25;5061910;28;46789;-69
2023/04/08 03:31:34;;;;;;;;;9.75;8.50;;;;;10.62;46.90;101763.00;5062106;28;45173;-69
2023/04/08 03:34:00;;;;;;;;;12.25;10.50;;;;;10.57;46.86;101765.59;5074027;28;45315;-69
2023/04/08 03:36:25;;;;;;;;;9.00;7.50;;;;;10.56;46.84;101764.75;5060624;28;45327;-69
2023/04/08 03:38:51;;;;;;;;;11.75;8.25;;;;;10.56;46.72;101758.59;5061769;28;46414;-69
2023/04/08 03:41:16;;;;;;;;;9.75;7.00;;;;;10.55;46.80;101772.59;5061832;28;45323;-69
2023/04/08 03:43:41;;;;;;;;;13.00;9.75;;;;;10.53;46.84;101771.75;5062143;28;45268;-69
2023/04/08 03:46:07;;;;;;;;;9.50;7.50;;;;;10.51;46.93;101770.84;5061837;28;45328;-69
2023/04/08 03:48:32;;;;;;;;;9.75;7.75;;;;;10.49;46.85;101773.47;5061634;28;45391;-69
2023/04/08 03:50:57;;;;;;;;;10.25;7.25;;;;;10.47;46.85;101769.09;5061700;28;45329;-69
2023/04/08 03:53:23;;;;;;;;;10.00;8.00;;;;;10.43;47.02;101776.09;5061844;28;46000;-69
2023/04/08 03:55:51;;;;;;;;;5.00;5.00;;;;;10.43;46.98;101777.81;5061708;28;45288;-69
2023/04/08 03:58:17;;;;;;;;;11.25;11.00;;;;;10.40;47.15;101779.59;5061671;28;47032;-69
2023/04/08 04:00:42;;;;;;;;;8.00;8.00;;;;;10.37;46.91;101776.94;5061574;28;45166;-69
2023/04/08 04:03:09;;;;;;;;;10.25;8.00;;;;;10.37;47.09;101776.06;5060799;28;45250;-69
2023/04/08 04:05:35;;;;;;;;;10.00;9.25;;;;;10.36;46.95;101782.19;5061590;28;45426;-70
2023/04/08 04:08:01;;;;;;;;;12.25;8.25;;;;;10.34;47.17;101779.53;5061367;28;46176;-69
2023/04/08 04:10:26;;;;;;;;;9.50;9.00;;;;;10.32;47.00;101785.66;5061245;28;45481;-69
2023/04/08 04:12:51;;;;;;;;;12.50;9.25;;;;;10.31;47.09;101776.88;5061340;28;49037;-69
2023/04/08 04:15:17;;;;;;;;;10.25;8.75;;;;;10.29;46.90;101776.00;5060097;28;45498;-69
2023/04/08 04:17:42;;;;;;;;;8.25;7.00;;;;;10.28;47.16;101768.13;5061173;28;46391;-70
2023/04/08 04:20:08;;;;;;;;;9.50;9.50;;;;;10.25;47.07;101768.97;5060925;28;49158;-69
2023/04/08 04:22:33;;;;;;;;;10.00;9.00;;;;;10.24;47.02;101775.97;5061542;28;45465;-69
2023/04/08 04:24:59;;;;;;;;;13.50;10.50;;;;;10.23;46.96;101783.88;5060997;28;46755;-69
2023/04/08 04:27:24;;;;;;;;;10.00;10.00;;;;;10.20;47.02;101781.22;5061188;28;45304;-69
2023/04/08 04:29:49;;;;;;;;;13.00;11.50;;;;;10.19;47.14;101780.34;5060952;28;45406;-69
2023/04/08 04:32:15;;;;;;;;;8.75;7.25;;;;;10.17;47.11;101787.31;5061061;28;45297;-70
2023/04/08 04:34:40;;;;;;;;;11.75;10.25;;;;;10.16;46.95;101789.97;5060887;28;45193;-69
2023/04/08 04:37:06;;;;;;;;;10.00;9.00;;;;;10.13;47.15;101790.81;5061037;28;45822;-69
2023/04/08 04:39:31;;;;;;;;;13.75;12.50;;;;;10.12;47.42;101786.44;5060875;28;45236;-69
2023/04/08 04:41:56;;;;;;;;;11.25;8.50;;;;;10.11;47.14;101796.94;5061123;28;45287;-70
2023/04/08 04:44:21;;;;;;;;;8.50;7.00;;;;;10.11;47.25;101796.94;5060937;28;45240;-69
2023/04/08 04:46:47;;;;;;;;;24.25;18.00;;;;;10.05;47.18;101784.63;5060569;28;53732;-69
2023/04/08 04:49:12;;;;;;;;;14.75;13.25;;;;;10.06;47.05;101792.56;5060599;28;45269;-69
2023/04/08 04:51:37;;;;;;;;;14.50;9.00;;;;;10.05;47.39;101795.16;5061209;28;45287;-69
2023/04/08 04:54:03;;;;;;;;;14.25;11.50;;;;;10.02;47.31;101798.63;5060123;28;54351;-70
2023/04/08 04:56:28;;;;;;;;;12.00;9.00;;;;;10.01;47.29;101807.41;5059507;28;45979;-69
2023/04/08 04:58:53;;;;;;;;;13.00;11.50;;;;;10.02;47.15;101810.91;5060382;28;46650;-70
2023/04/08 05:01:19;;;;;;;;;12.75;10.50;;;;;10.00;47.49;101810.00;5060902;28;45197;-70
2023/04/08 05:03:44;;;;;;;;;10.50;8.50;;;;;9.97;47.36;101808.25;5060345;28;45517;-69
2023/04/08 05:06:10;;;;;;;;;11.75;10.25;;;;;9.96;47.43;101818.75;5060519;28;54459;-70
2023/04/08 05:08:35;;;;;;;;;11.25;10.25;;;;;9.96;47.39;101810.88;5060548;28;45352;-69
2023/04/08 05:11:01;;;;;;;;;14.00;12.00;;;;;9.93;47.53;101817.84;5060622;27;45449;-70
2023/04/08 05:13:31;;;;;;;;;11.25;11.25;;;;;9.91;47.42;101813.47;5060293;28;46237;-70
2023/04/08 05:15:56;;;;;;;;;14.00;12.50;;;;;9.91;47.58;101818.72;5059265;28;46211;-70
2023/04/08 05:18:22;;;;;;;;;16.00;10.75;;;;;9.88;47.52;101821.34;5059651;28;53773;-70
2023/04/08 05:20:47;;;;;;;;;16.00;11.25;;;;;9.85;47.45;101826.56;5060339;28;45383;-69
2023/04/08 05:23:12;;;;;;;;;13.50;13.25;;;;;9.85;47.61;101829.19;5060207;28;45283;-69
2023/04/08 05:25:38;;;;;;;;;17.50;14.00;;;;;9.83;47.71;101830.94;5060010;28;47557;-70
2023/04/08 05:28:03;;;;;;;;;19.25;17.50;;;;;9.81;47.50;101828.31;5060252;28;45283;-69
2023/04/08 05:30:29;;;;;;;;;19.00;16.75;;;;;9.81;47.42;101832.66;5060224;28;45324;-69
2023/04/08 05:32:55;;;;;;;;;12.75;11.00;;;;;9.79;47.56;101830.03;5071965;28;45427;-69
2023/04/08 05:35:20;;;;;;;;;15.50;13.25;;;;;9.79;47.44;101832.66;5050470;28;46218;-69
2023/04/08 05:37:46;;;;;;;;;15.25;13.50;;;;;9.77;47.72;101834.38;5060072;28;45310;-69
2023/04/08 05:40:11;;;;;;;;;12.75;12.75;;;;;9.76;47.49;101837.91;5059930;28;45370;-69
2023/04/08 05:42:36;;;;;;;;;16.50;14.50;;;;;9.76;47.82;101844.03;5059944;28;45338;-69
2023/04/08 05:45:02;;;;;;;;;20.75;17.50;;;;;9.70;47.56;101830.84;5059919;28;46086;-70
2023/04/08 05:47:27;;;;;;;;;15.00;14.75;;;;;9.73;47.88;101840.50;5059755;28;45429;-70
2023/04/08 05:49:52;;;;;;;;;15.75;14.75;;;;;9.71;47.58;101837.88;5058844;28;45427;-70
2023/04/08 05:52:18;;;;;;;;;14.50;13.00;;;;;9.74;47.88;101844.88;5058810;28;45441;-70
2023/04/08 05:54:43;;;;;;;;;17.25;17.00;;;;;9.71;47.88;101840.50;5059162;28;45329;-70
2023/04/08 05:57:09;;;;;;;;;15.00;14.00;;;;;9.71;47.80;101852.72;5059866;28;45303;-70
2023/04/08 05:59:34;;;;;;;;;18.00;16.00;;;;;9.70;47.63;101854.47;5041981;28;45458;-69
2023/04/08 06:01:59;;;;;;;;;15.75;13.50;;;;;9.69;47.89;101862.34;5059559;28;45342;-69
2023/04/08 06:04:25;;;;;;;;;17.50;14.25;;;;;9.62;47.97;101853.53;5058593;28;47250;-69
2023/04/08 06:06:50;;;;;;;;;17.00;13.00;;;;;9.69;47.70;101860.59;5059749;28;45252;-70
2023/04/08 06:09:15;;;;;;;;;20.75;17.00;;;;;9.62;47.88;101852.66;5075329;28;45257;-70
2023/04/08 06:11:41;;;;;;;;;20.00;15.50;;;;;9.66;47.85;101871.06;5059612;28;45220;-70
2023/04/08 06:14:06;;;;;;;;;18.25;16.25;;;;;9.69;48.09;101873.72;5059496;28;46005;-70
2023/04/08 06:16:31;;;;;;;;;20.25;16.50;;;;;9.66;47.88;101868.44;5059109;28;54882;-70
2023/04/08 06:18:57;;;;;;;;;22.00;19.00;;;;;9.69;47.72;101872.84;5059272;28;45631;-70
2023/04/08 06:21:22;;;;;;;;;16.50;15.50;;;;;9.67;48.05;101875.47;5057657;28;56754;-70
2023/04/08 06:23:47;;;;;;;;;20.25;18.00;;;;;9.66;47.93;101876.31;5059428;28;45987;-70
2023/04/08 06:26:13;;;;;;;;;22.00;19.00;;;;;9.68;47.82;101878.94;5059455;28;45221;-70
2023/04/08 06:28:38;;;;;;;;;12.75;9.50;;;;;9.68;48.03;101871.94;5063277;28;45209;-70
2023/04/08 06:31:03;;;;;;;;;16.75;15.00;;;;;9.68;48.06;101874.56;5062509;28;50068;-69
2023/04/08 06:33:29;;;;;;;;;20.50;15.75;;;;;9.69;48.16;101878.09;5062587;28;45259;-70
2023/04/08 06:36:04;;;;;;;;;20.25;19.00;;;;;9.69;48.20;101897.34;5062982;28;45561;-70
2023/04/08 06:38:30;;;;;;;;;27.50;20.25;;;;;9.69;47.86;101885.97;5063132;28;45237;-70
2023/04/08 06:41:00;;;;;;;;;17.50;15.75;;;;;9.70;48.12;101890.34;5062611;28;45294;-70
2023/04/08 06:43:26;;;;;;;;;15.75;14.00;;;;;9.71;47.91;101894.72;5062703;28;46141;-70
2023/04/08 06:45:52;;;;;;;;;21.75;18.25;;;;;9.71;48.06;101897.34;5062578;28;45304;-70
2023/04/08 06:48:17;;;;;;;;;21.25;19.50;;;;;9.71;48.13;101889.47;5062623;28;45236;-70
2023/04/08 06:50:42;;;;;;;;;18.25;16.75;;;;;9.72;48.09;101894.75;5062547;28;45591;-70
2023/04/08 06:53:08;;;;;;;;;21.25;20.50;;;;;9.74;48.01;101897.38;5062514;28;46969;-70
2023/04/08 06:55:33;;;;;;;;;26.75;24.00;;;;;9.73;48.13;101904.34;5062361;28;45296;-70
2023/04/08 06:58:00;;;;;;;;;25.00;21.00;;;;;9.78;47.97;101919.28;5062465;28;47659;-70
2023/04/08 07:00:26;;;;;;;;;26.00;23.00;;;;;9.79;48.42;101915.81;5062509;28;45479;-70
2023/04/08 07:02:51;;;;;;;;;24.50;21.50;;;;;9.81;48.02;101914.94;5062396;28;45368;-70
2023/04/08 07:05:16;;;;;;;;;23.25;19.50;;;;;9.75;48.14;101900.00;5062716;28;45342;-70
2023/04/08 07:07:42;;;;;;;;;22.75;19.75;;;;;9.84;48.15;101917.56;5062686;28;45296;-70
2023/04/08 07:10:08;;;;;;;;;21.50;20.25;;;;;9.87;47.92;101921.97;5062273;28;45237;-70
2023/04/08 07:12:33;;;;;;;;;22.00;20.50;;;;;9.87;48.44;101925.50;5062488;28;45403;-70
2023/04/08 07:14:58;;;;;;;;;25.50;21.25;;;;;9.89;48.33;101923.75;5060773;28;47211;-71
2023/04/08 07:17:24;;;;;;;;;21.00;19.50;;;;;9.91;48.47;101922.00;5061946;28;50483;-70
2023/04/08 07:19:49;;;;;;;;;23.75;22.50;;;;;9.94;48.25;101929.03;5060703;28;45882;-70
2023/04/08 07:22:15;;;;;;;;;25.00;22.00;;;;;9.96;48.27;101929.03;5077869;27;48370;-69
2023/04/08 07:24:42;;;;;;;;;30.75;24.25;;;;;9.96;48.36;101924.69;5062001;28;45351;-70
2023/04/08 07:27:08;;;;;;;;;26.50;20.25;;;;;10.00;48.39;101931.72;5062399;28;45236;-68
2023/04/08 07:29:33;;;;;;;;;19.25;16.50;;;;;10.03;48.36;101938.72;5061785;28;45469;-68
2023/04/08 07:31:58;;;;;;;;;30.00;21.75;;;;;10.05;48.29;101934.34;5061837;28;46352;-69
2023/04/08 07:34:24;;;;;;;;;27.50;23.50;;;;;10.09;48.27;101934.38;5061792;28;45332;-68
2023/04/08 07:36:49;;;;;;;;;23.50;21.50;;;;;10.13;48.58;101934.44;5062323;28;45228;-68
2023/04/08 07:39:15;;;;;;;;;24.00;21.25;;;;;10.15;48.43;101936.19;5060580;28;45220;-68
2023/04/08 07:41:40;;;;;;;;;24.00;20.50;;;;;10.19;48.62;101937.09;5061900;28;45688;-69
2023/04/08 07:44:06;;;;;;;;;25.00;21.25;;;;;10.20;48.45;101936.19;5061834;28;45410;-71
2023/04/08 07:46:35;;;;;;;;;27.75;20.50;;;;;10.24;48.43;101944.13;5061869;28;45442;-71
2023/04/08 07:49:00;;;;;;;;;25.75;21.00;;;;;10.28;48.41;101939.75;5061699;28;45255;-68
2023/04/08 07:51:26;;;;;;;;;25.50;21.75;;;;;10.32;48.48;101938.03;5061791;28;45316;-68
2023/04/08 07:53:51;;;;;;;;;22.25;20.00;;;;;10.35;48.44;101948.56;5061576;28;45324;-71
2023/04/08 07:56:17;;;;;;;;;25.00;20.50;;;;;10.38;48.42;101953.88;5061709;28;45223;-68
2023/04/08 07:58:43;;;;;;;;;21.75;18.00;;;;;10.43;48.33;101953.88;5060166;28;45344;-68
2023/04/08 08:01:17;;;;;;;;;21.50;20.50;;;;;10.47;48.55;101950.44;5060261;28;48024;-68
2023/04/08 08:03:42;;;;;;;;;25.25;22.75;;;;;10.48;48.49;101958.31;5061179;28;45354;-69
2023/04/08 08:06:10;;;;;;;;;28.50;24.00;;;;;10.54;48.57;101954.81;5061497;28;45362;-68
2023/04/08 08:08:35;;;;;;;;;23.25;18.00;;;;;10.55;48.50;101952.22;5060093;28;45413;-69
2023/04/08 08:11:01;;;;;;;;;23.00;18.75;;;;;10.62;48.60;101954.88;5061173;27;45505;-68
2023/04/08 08:13:26;;;;;;;;;23.00;20.75;;;;;10.65;48.65;101958.38;5061257;28;45342;-68
2023/04/08 08:15:52;;;;;;;;;25.00;19.25;;;;;10.69;48.37;101960.19;5061576;28;45327;-68
2023/04/08 08:18:18;;;;;;;;;21.75;21.50;;;;;10.72;48.36;101946.16;5061203;28;45530;-69
2023/04/08 08:20:43;;;;;;;;;23.00;19.00;;;;;10.80;48.70;101959.34;5061114;28;45288;-68
2023/04/08 08:23:08;;;;;;;;;21.25;20.00;;;;;10.85;48.52;101965.50;5061353;28;49183;-68
2023/04/08 08:25:34;;;;;;;;;21.25;19.50;;;;;10.89;48.61;101956.75;5061321;28;45443;-69
2023/04/08 08:27:59;;;;;;;;;22.50;19.75;;;;;10.95;48.55;101966.41;5061097;28;45439;-69
2023/04/08 08:30:25;;;;;;;;;17.25;12.75;;;;;10.98;48.47;101964.69;5061093;28;47200;-69
2023/04/08 08:32:51;;;;;;;;;24.25;20.50;;;;;11.03;48.55;101973.47;5060522;28;45288;-69
2023/04/08 08:35:16;;;;;;;;;23.75;21.50;;;;;11.09;48.48;101967.31;5061162;28;45459;-68
2023/04/08 08:37:42;;;;;;;;;25.50;19.25;;;;;11.14;48.47;101968.22;5060966;28;45402;-69
2023/04/08 08:40:08;;;;;;;;;22.25;20.00;;;;;11.19;48.54;101968.25;5060337;28;45409;-70
2023/04/08 08:42:33;;;;;;;;;28.50;23.50;;;;;11.25;48.50;101970.03;5060816;28;45287;-71
2023/04/08 08:45:02;;;;;;;;;27.00;22.50;;;;;11.29;48.57;101970.03;5060059;28;45427;-70
2023/04/08 08:47:28;;;;;;;;;25.50;22.75;;;;;11.36;48.51;101968.31;5060754;28;45473;-70
2023/04/08 08:49:53;;;;;;;;;23.75;22.75;;;;;11.42;48.59;101964.78;5060435;28;46976;-70
2023/04/08 08:52:18;;;;;;;;;23.50;20.25;;;;;11.48;48.55;101970.06;5060629;28;45257;-70
2023/04/08 08:54:45;;;;;;;;;26.75;23.25;;;;;11.53;48.61;101965.69;5060714;28;45309;-70
2023/04/08 08:57:18;;;;;;;;;26.75;21.75;;;;;11.59;48.70;101962.19;5060548;28;45420;-70
2023/04/08 08:59:47;;;;;;;;;24.25;22.25;;;;;11.67;48.73;101966.59;5060605;28;45623;-70
2023/04/08 09:02:31;;;;;;;;;25.25;21.25;;;;;11.74;48.88;101964.81;5060401;28;45276;-70
2023/04/08 09:04:57;;;;;;;;;29.75;24.50;;;;;11.82;48.64;101959.56;5060660;28;45224;-70
2023/04/08 09:07:25;;;;;;;;;20.25;20.25;;;;;11.89;48.71;101969.22;5060712;28;45235;-70
2023/04/08 09:09:52;;;;;;;;;25.25;19.00;;;;;11.96;48.70;101962.22;5060136;28;46198;-70
2023/04/08 09:12:17;;;;;;;;;26.25;22.00;;;;;12.05;48.83;101966.59;5060564;28;45433;-70
2023/04/08 09:14:43;;;;;;;;;23.75;22.00;;;;;12.13;48.77;101964.84;5058858;28;45625;-70
2023/04/08 09:17:08;;;;;;;;;24.00;22.00;;;;;12.20;48.63;101958.72;5060169;28;45334;-70
2023/04/08 09:19:33;;;;;;;;;21.50;21.00;;;;;12.28;48.48;101967.47;5059969;28;45420;-70
2023/04/08 09:22:10;;;;;;;;;26.50;22.50;;;;;12.38;48.75;101963.06;5060364;28;45315;-70
2023/04/08 09:24:36;;;;;;;;;27.00;21.00;;;;;12.48;48.68;101963.91;5060305;28;45308;-70
2023/04/08 09:27:03;;;;;;;;;28.75;22.25;;;;;12.58;48.76;101959.47;5060481;28;45495;-70
2023/04/08 09:29:29;;;;;;;;;24.00;20.25;;;;;12.68;48.52;101955.94;5060034;28;45215;-70
2023/04/08 09:31:56;;;;;;;;;23.75;19.25;;;;;12.79;48.69;101959.41;5059693;28;45345;-69
2023/04/08 09:34:22;;;;;;;;;20.00;16.75;;;;;12.89;48.43;101960.22;5059971;28;45327;-69
2023/04/08 09:36:51;;;;;;;;;22.25;20.50;;;;;13.04;48.79;101963.69;5060056;28;45442;-69
2023/04/08 09:39:17;;;;;;;;;23.00;19.25;;;;;13.12;48.78;101961.91;5059716;28;45308;-69
2023/04/08 09:41:45;;;;;;;;;17.25;14.75;;;;;13.28;48.58;101971.50;5060296;28;45243;-69
2023/04/08 09:44:10;;;;;;;;;22.00;17.00;;;;;13.42;48.38;101968.78;5060065;28;45288;-69
2023/04/08 09:46:50;;;;;;;;;18.50;16.25;;;;;13.59;48.83;101971.31;5059560;28;45333;-70
2023/04/08 09:49:24;;;;;;;;;23.00;19.00;;;;;13.75;49.20;101972.06;5059665;28;46149;-70
2023/04/08 09:51:59;;;;;;;;;21.25;18.50;;;;;13.95;49.08;101968.41;5059748;28;45315;-70
2023/04/08 09:54:35;;;;;;;;;20.50;19.75;;;;;14.18;49.31;101973.47;5059904;28;45326;-70
2023/04/08 09:57:08;;;;;;;;;25.25;21.00;;;;;14.45;49.35;101971.41;5059865;28;45473;-70
2023/04/08 09:59:37;;;;;;;;;17.50;17.25;;;;;14.73;49.40;101971.13;5059797;28;45415;-70
2023/04/08 10:02:08;;;;;;;;;17.50;16.75;;;;;14.98;49.34;101976.13;5060916;28;45260;-70
2023/04/08 10:04:38;;;;;;;;;25.50;20.75;;;;;15.27;49.17;101975.75;5063585;28;45323;-70
2023/04/08 10:07:05;;;;;;;;;18.75;15.00;;;;;15.53;49.34;101972.69;5063328;28;45240;-70
2023/04/08 10:09:32;;;;;;;;;21.00;19.50;;;;;15.78;49.17;101980.25;5062967;28;45377;-70
2023/04/08 10:11:57;;;;;;;;;23.25;18.75;;;;;15.98;49.07;101972.00;5063157;28;45493;-70
2023/04/08 10:14:27;;;;;;;;;19.00;14.25;;;;;16.18;48.92;101973.44;5063218;28;45399;-70
2023/04/08 10:17:28;;;;;;;;;20.00;17.25;;;;;16.42;49.17;101977.41;5062984;28;45411;-70
2023/04/08 10:19:53;;;;;;;;;16.75;15.00;;;;;16.58;48.86;101964.72;5062780;28;47021;-70
2023/04/08 10:22:28;;;;;;;;;21.75;18.00;;;;;16.83;48.66;101969.53;5061748;28;45333;-70
2023/04/08 10:25:15;;;;;;;;;18.75;14.75;;;;;17.07;48.55;101970.84;5063101;28;45339;-70
2023/04/08 10:27:42;;;;;;;;;20.00;16.50;;;;;17.30;48.36;101974.75;5062872;28;45515;-70
2023/04/08 10:30:30;;;;;;;;;23.00;17.50;;;;;17.56;48.64;101968.84;5062958;28;45246;-70
2023/04/08 10:33:00;;;;;;;;;16.50;16.50;;;;;17.79;48.60;101965.59;5054331;28;46013;-69
2023/04/08 10:35:35;;;;;;;;;17.00;13.25;;;;;18.09;48.57;101960.44;5061581;28;45271;-70
2023/04/08 10:38:02;;;;;;;;;15.25;12.00;;;;;18.39;48.66;101954.31;5062725;28;45466;-70
2023/04/08 10:40:27;;;;;;;;;19.75;17.25;;;;;18.69;48.24;101960.56;5062853;28;46140;-70
2023/04/08 10:42:56;;;;;;;;;15.75;14.25;;;;;18.99;48.49;101955.28;5062695;28;45287;-69
2023/04/08 10:45:22;;;;;;;;;22.25;17.25;;;;;19.28;48.31;101954.41;5063053;28;45391;-69
2023/04/08 10:47:47;;;;;;;;;19.00;17.50;;;;;19.58;48.07;101940.13;5062507;28;45578;-69
2023/04/08 10:50:17;;;;;;;;;18.00;15.75;;;;;19.83;47.83;101932.19;5062729;28;45334;-69
2023/04/08 10:52:47;;;;;;;;;14.75;14.00;;;;;20.22;47.74;101938.84;5062813;28;45353;-69
2023/04/08 10:55:12;;;;;;;;;22.00;18.00;;;;;20.53;48.06;101937.75;5062876;28;45408;-69
2023/04/08 10:57:39;;;;;;;;;10.50;10.50;;;;;20.83;48.28;101934.84;5063434;28;45526;-69
2023/04/08 11:00:09;;;;;;;;;15.50;14.00;;;;;21.14;47.98;101922.97;5062846;28;46562;-69
2023/04/08 11:02:37;;;;;;;;;15.50;13.50;;;;;21.43;47.61;101922.66;5062339;28;45295;-69
2023/04/08 11:05:02;;;;;;;;;16.50;12.50;;;;;21.83;47.53;101922.81;5062719;28;45333;-69
2023/04/08 11:07:27;;;;;;;;;11.50;11.50;;;;;22.16;47.41;101924.06;5062612;28;45473;-69
2023/04/08 11:09:54;;;;;;;;;14.50;13.75;;;;;22.52;47.61;101924.25;5062200;28;46129;-69
2023/04/08 11:12:20;;;;;;;;;16.25;15.00;;;;;22.89;47.22;101925.22;5062440;28;45456;-69
2023/04/08 11:14:47;;;;;;;;;14.75;13.00;;;;;23.27;47.28;101923.44;5062338;28;45325;-69